sensor_id;sensor_type;location;lat;lon;timestamp;temperature;humidity
52481;DHT22;38393;52.404;13.532;2023-08-24T00:00:45;15.90;99.90
52481;DHT22;38393;52.404;13.532;2023-08-24T00:03:10;15.80;99.90
52481;DHT22;38393;52.404;13.532;2023-08-24T00:05:36;15.70;99.90
52481;DHT22;38393;52.404;13.532;2023-08-24T00:08:05;15.80;99.90
52481;DHT22;38393;52.404;13.532;2023-08-24T00:10:31;15.80;99.90
52481;DHT22;38393;52.404;13.532;2023-08-24T00:12:57;15.80;99.90
52481;DHT22;38393;52.404;13.532;2023-08-24T00:15:22;15.90;99.90
52481;DHT22;38393;52.404;13.532;2023-08-24T00:17:48;15.80;99.90
52481;DHT22;38393;52.404;13.532;2023-08-24T00:20:13;15.60;99.90
52481;DHT22;38393;52.404;13.532;2023-08-24T00:22:39;15.80;99.90
52481;DHT22;38393;52.404;13.532;2023-08-24T00:25:06;15.70;99.90
52481;DHT22;38393;52.404;13.532;2023-08-24T00:27:32;15.70;99.90
52481;DHT22;38393;52.404;13.532;2023-08-24T00:29:57;15.70;99.90
52481;DHT22;38393;52.404;13.532;2023-08-24T00:32:23;15.70;99.90
52481;DHT22;38393;52.404;13.532;2023-08-24T00:34:48;15.60;99.90
52481;DHT22;38393;52.404;13.532;2023-08-24T00:37:14;15.70;99.90
52481;DHT22;38393;52.404;13.532;2023-08-24T00:39:39;15.70;99.90
52481;DHT22;38393;52.404;13.532;2023-08-24T00:42:05;15.70;99.90
52481;DHT22;38393;52.404;13.532;2023-08-24T00:44:31;15.60;99.90
52481;DHT22;38393;52.404;13.532;2023-08-24T00:46:58;15.60;99.90
52481;DHT22;38393;52.404;13.532;2023-08-24T00:49:24;15.50;99.90
52481;DHT22;38393;52.404;13.532;2023-08-24T00:51:50;15.60;99.90
52481;DHT22;38393;52.404;13.532;2023-08-24T00:54:16;15.50;99.90
52481;DHT22;38393;52.404;13.532;2023-08-24T00:56:42;15.50;99.90
52481;DHT22;38393;52.404;13.532;2023-08-24T00:59:08;15.50;99.90
52481;DHT22;38393;52.404;13.532;2023-08-24T01:01:33;15.50;99.90
52481;DHT22;38393;52.404;13.532;2023-08-24T01:03:59;15.40;99.90
52481;DHT22;38393;52.404;13.532;2023-08-24T01:06:25;15.40;99.90
52481;DHT22;38393;52.404;13.532;2023-08-24T01:08:51;15.40;99.90
52481;DHT22;38393;52.404;13.532;2023-08-24T01:11:29;15.40;99.90
52481;DHT22;38393;52.404;13.532;2023-08-24T01:17:01;15.40;99.90
52481;DHT22;38393;52.404;13.532;2023-08-24T01:19:38;15.30;99.90
52481;DHT22;38393;52.404;13.532;2023-08-24T01:22:43;15.30;99.90
52481;DHT22;38393;52.404;13.532;2023-08-24T01:25:17;15.30;99.90
52481;DHT22;38393;52.404;13.532;2023-08-24T01:27:45;15.30;99.90
52481;DHT22;38393;52.404;13.532;2023-08-24T01:30:12;15.30;99.90
52481;DHT22;38393;52.404;13.532;2023-08-24T01:32:38;15.30;99.90
52481;DHT22;38393;52.404;13.532;2023-08-24T01:35:08;15.30;99.90
52481;DHT22;38393;52.404;13.532;2023-08-24T01:37:35;15.20;99.90
52481;DHT22;38393;52.404;13.532;2023-08-24T01:40:13;15.30;99.90
52481;DHT22;38393;52.404;13.532;2023-08-24T01:42:57;15.20;99.90
52481;DHT22;38393;52.404;13.532;2023-08-24T01:45:28;15.20;99.90
52481;DHT22;38393;52.404;13.532;2023-08-24T01:47:55;15.20;99.90
52481;DHT22;38393;52.404;13.532;2023-08-24T01:50:21;15.10;99.90
52481;DHT22;38393;52.404;13.532;2023-08-24T01:52:47;15.10;99.90
52481;DHT22;38393;52.404;13.532;2023-08-24T01:55:12;15.10;99.90
52481;DHT22;38393;52.404;13.532;2023-08-24T01:57:38;15.20;99.90
52481;DHT22;38393;52.404;13.532;2023-08-24T02:00:05;15.20;99.90
52481;DHT22;38393;52.404;13.532;2023-08-24T02:02:35;15.30;99.90
52481;DHT22;38393;52.404;13.532;2023-08-24T02:05:02;15.30;99.90
52481;DHT22;38393;52.404;13.532;2023-08-24T02:07:28;15.40;99.90
52481;DHT22;38393;52.404;13.532;2023-08-24T02:09:53;15.40;99.90
52481;DHT22;38393;52.404;13.532;2023-08-24T02:12:19;15.30;99.90
52481;DHT22;38393;52.404;13.532;2023-08-24T02:14:44;15.30;99.90
52481;DHT22;38393;52.404;13.532;2023-08-24T02:17:10;15.30;99.90
52481;DHT22;38393;52.404;13.532;2023-08-24T02:19:35;15.40;99.90
52481;DHT22;38393;52.404;13.532;2023-08-24T02:22:01;15.30;99.90
52481;DHT22;38393;52.404;13.532;2023-08-24T02:24:26;15.40;99.90
52481;DHT22;38393;52.404;13.532;2023-08-24T02:26:51;15.30;99.90
52481;DHT22;38393;52.404;13.532;2023-08-24T02:29:17;15.50;99.90
52481;DHT22;38393;52.404;13.532;2023-08-24T02:31:43;15.60;99.90
52481;DHT22;38393;52.404;13.532;2023-08-24T02:34:08;15.60;99.90
52481;DHT22;38393;52.404;13.532;2023-08-24T02:36:33;15.60;99.90
52481;DHT22;38393;52.404;13.532;2023-08-24T02:38:59;15.70;99.90
52481;DHT22;38393;52.404;13.532;2023-08-24T02:41:26;15.80;99.90
52481;DHT22;38393;52.404;13.532;2023-08-24T02:43:51;15.90;99.90
52481;DHT22;38393;52.404;13.532;2023-08-24T02:46:17;15.90;99.90
52481;DHT22;38393;52.404;13.532;2023-08-24T02:48:44;16.00;99.90
52481;DHT22;38393;52.404;13.532;2023-08-24T02:51:10;15.90;99.90
52481;DHT22;38393;52.404;13.532;2023-08-24T02:53:35;16.00;99.90
52481;DHT22;38393;52.404;13.532;2023-08-24T02:56:02;16.10;99.90
52481;DHT22;38393;52.404;13.532;2023-08-24T02:58:28;16.10;99.90
52481;DHT22;38393;52.404;13.532;2023-08-24T03:00:53;16.10;99.90
52481;DHT22;38393;52.404;13.532;2023-08-24T03:03:19;16.30;99.90
52481;DHT22;38393;52.404;13.532;2023-08-24T03:05:55;16.20;99.90
52481;DHT22;38393;52.404;13.532;2023-08-24T03:08:21;16.30;99.90
52481;DHT22;38393;52.404;13.532;2023-08-24T03:10:46;16.30;99.90
52481;DHT22;38393;52.404;13.532;2023-08-24T03:13:13;16.30;99.90
52481;DHT22;38393;52.404;13.532;2023-08-24T03:15:38;16.30;99.90
52481;DHT22;38393;52.404;13.532;2023-08-24T03:18:04;16.40;99.90
52481;DHT22;38393;52.404;13.532;2023-08-24T03:20:29;16.40;99.90
52481;DHT22;38393;52.404;13.532;2023-08-24T03:22:55;16.40;99.90
52481;DHT22;38393;52.404;13.532;2023-08-24T03:25:20;16.50;99.90
52481;DHT22;38393;52.404;13.532;2023-08-24T03:27:46;16.50;99.90
52481;DHT22;38393;52.404;13.532;2023-08-24T03:30:12;16.60;99.90
52481;DHT22;38393;52.404;13.532;2023-08-24T03:32:40;16.60;99.90
52481;DHT22;38393;52.404;13.532;2023-08-24T03:35:05;16.60;99.90
52481;DHT22;38393;52.404;13.532;2023-08-24T03:37:31;16.60;99.90
52481;DHT22;38393;52.404;13.532;2023-08-24T03:39:56;16.60;99.90
52481;DHT22;38393;52.404;13.532;2023-08-24T03:42:22;16.60;99.90
52481;DHT22;38393;52.404;13.532;2023-08-24T03:44:47;16.60;99.90
52481;DHT22;38393;52.404;13.532;2023-08-24T03:47:13;16.60;99.90
52481;DHT22;38393;52.404;13.532;2023-08-24T03:49:38;16.70;99.90
52481;DHT22;38393;52.404;13.532;2023-08-24T03:52:04;16.60;99.90
52481;DHT22;38393;52.404;13.532;2023-08-24T03:54:29;16.70;99.90
52481;DHT22;38393;52.404;13.532;2023-08-24T03:56:55;16.70;99.90
52481;DHT22;38393;52.404;13.532;2023-08-24T03:59:20;16.70;99.90
52481;DHT22;38393;52.404;13.532;2023-08-24T04:01:46;16.70;99.90
52481;DHT22;38393;52.404;13.532;2023-08-24T04:04:11;16.70;99.90
52481;DHT22;38393;52.404;13.532;2023-08-24T04:06:37;16.70;99.90
52481;DHT22;38393;52.404;13.532;2023-08-24T04:09:04;16.60;99.90
52481;DHT22;38393;52.404;13.532;2023-08-24T04:11:30;16.60;99.90
52481;DHT22;38393;52.404;13.532;2023-08-24T04:13:55;16.60;99.90
52481;DHT22;38393;52.404;13.532;2023-08-24T04:16:21;16.50;99.90
52481;DHT22;38393;52.404;13.532;2023-08-24T04:18:46;16.50;99.90
52481;DHT22;38393;52.404;13.532;2023-08-24T04:21:12;16.50;99.90
52481;DHT22;38393;52.404;13.532;2023-08-24T04:23:37;16.70;99.90
52481;DHT22;38393;52.404;13.532;2023-08-24T04:26:02;16.60;99.90
52481;DHT22;38393;52.404;13.532;2023-08-24T04:28:30;16.60;99.90
52481;DHT22;38393;52.404;13.532;2023-08-24T04:30:56;16.60;99.90
52481;DHT22;38393;52.404;13.532;2023-08-24T04:33:24;16.70;99.90
52481;DHT22;38393;52.404;13.532;2023-08-24T04:35:50;16.70;99.90
52481;DHT22;38393;52.404;13.532;2023-08-24T04:38:16;16.80;99.90
52481;DHT22;38393;52.404;13.532;2023-08-24T04:40:48;16.90;99.90
52481;DHT22;38393;52.404;13.532;2023-08-24T04:43:13;16.90;99.90
52481;DHT22;38393;52.404;13.532;2023-08-24T04:45:39;16.90;99.90
52481;DHT22;38393;52.404;13.532;2023-08-24T04:48:04;16.90;99.90
52481;DHT22;38393;52.404;13.532;2023-08-24T04:50:30;17.00;99.90
52481;DHT22;38393;52.404;13.532;2023-08-24T04:52:55;17.10;99.90
52481;DHT22;38393;52.404;13.532;2023-08-24T04:55:21;17.00;99.90
52481;DHT22;38393;52.404;13.532;2023-08-24T04:57:46;17.10;99.90
52481;DHT22;38393;52.404;13.532;2023-08-24T05:00:12;17.10;99.90
52481;DHT22;38393;52.404;13.532;2023-08-24T05:02:41;17.10;99.90
52481;DHT22;38393;52.404;13.532;2023-08-24T05:05:07;17.10;99.90
52481;DHT22;38393;52.404;13.532;2023-08-24T05:07:36;17.10;99.90
52481;DHT22;38393;52.404;13.532;2023-08-24T05:10:02;17.10;99.90
52481;DHT22;38393;52.404;13.532;2023-08-24T05:12:28;17.30;99.90
52481;DHT22;38393;52.404;13.532;2023-08-24T05:14:54;17.40;99.90
52481;DHT22;38393;52.404;13.532;2023-08-24T05:17:20;17.50;99.90
52481;DHT22;38393;52.404;13.532;2023-08-24T05:19:50;17.50;99.90
52481;DHT22;38393;52.404;13.532;2023-08-24T05:22:16;17.60;99.90
52481;DHT22;38393;52.404;13.532;2023-08-24T05:24:41;17.60;99.90
52481;DHT22;38393;52.404;13.532;2023-08-24T05:27:07;17.60;99.90
52481;DHT22;38393;52.404;13.532;2023-08-24T05:29:32;17.60;99.90
52481;DHT22;38393;52.404;13.532;2023-08-24T05:31:58;17.70;99.90
52481;DHT22;38393;52.404;13.532;2023-08-24T05:34:24;17.90;99.90
52481;DHT22;38393;52.404;13.532;2023-08-24T05:36:49;18.00;99.90
52481;DHT22;38393;52.404;13.532;2023-08-24T05:39:15;18.30;99.90
52481;DHT22;38393;52.404;13.532;2023-08-24T05:41:40;18.40;99.90
52481;DHT22;38393;52.404;13.532;2023-08-24T05:44:05;18.50;99.90
52481;DHT22;38393;52.404;13.532;2023-08-24T05:46:31;18.60;99.90
52481;DHT22;38393;52.404;13.532;2023-08-24T05:48:58;18.80;99.90
52481;DHT22;38393;52.404;13.532;2023-08-24T05:51:23;18.80;99.90
52481;DHT22;38393;52.404;13.532;2023-08-24T05:53:49;19.00;99.90
52481;DHT22;38393;52.404;13.532;2023-08-24T05:56:14;19.00;99.90
52481;DHT22;38393;52.404;13.532;2023-08-24T05:58:40;19.20;99.90
52481;DHT22;38393;52.404;13.532;2023-08-24T06:01:05;19.10;99.90
52481;DHT22;38393;52.404;13.532;2023-08-24T06:03:31;19.10;99.90
52481;DHT22;38393;52.404;13.532;2023-08-24T06:06:03;19.10;99.90
52481;DHT22;38393;52.404;13.532;2023-08-24T06:08:29;19.20;99.90
52481;DHT22;38393;52.404;13.532;2023-08-24T06:10:55;19.30;99.90
52481;DHT22;38393;52.404;13.532;2023-08-24T06:13:21;19.30;99.90
52481;DHT22;38393;52.404;13.532;2023-08-24T06:15:46;19.20;99.90
52481;DHT22;38393;52.404;13.532;2023-08-24T06:18:12;19.30;99.90
52481;DHT22;38393;52.404;13.532;2023-08-24T06:20:37;19.40;99.90
52481;DHT22;38393;52.404;13.532;2023-08-24T06:23:03;19.50;99.90
52481;DHT22;38393;52.404;13.532;2023-08-24T06:25:28;19.60;99.90
52481;DHT22;38393;52.404;13.532;2023-08-24T06:27:54;19.70;99.90
52481;DHT22;38393;52.404;13.532;2023-08-24T06:30:19;19.70;99.90
52481;DHT22;38393;52.404;13.532;2023-08-24T06:32:45;19.90;99.90
52481;DHT22;38393;52.404;13.532;2023-08-24T06:35:10;19.90;99.90
52481;DHT22;38393;52.404;13.532;2023-08-24T06:37:39;20.10;99.90
52481;DHT22;38393;52.404;13.532;2023-08-24T06:40:05;20.10;99.90
52481;DHT22;38393;52.404;13.532;2023-08-24T06:42:31;20.20;99.90
52481;DHT22;38393;52.404;13.532;2023-08-24T06:44:56;20.20;99.90
52481;DHT22;38393;52.404;13.532;2023-08-24T06:47:22;20.20;99.90
52481;DHT22;38393;52.404;13.532;2023-08-24T06:49:48;20.30;99.90
52481;DHT22;38393;52.404;13.532;2023-08-24T06:52:13;20.40;99.90
52481;DHT22;38393;52.404;13.532;2023-08-24T06:54:39;20.50;99.90
52481;DHT22;38393;52.404;13.532;2023-08-24T06:57:04;20.70;99.90
52481;DHT22;38393;52.404;13.532;2023-08-24T06:59:30;20.90;99.90
52481;DHT22;38393;52.404;13.532;2023-08-24T07:01:55;21.00;99.90
52481;DHT22;38393;52.404;13.532;2023-08-24T07:04:22;21.10;99.90
52481;DHT22;38393;52.404;13.532;2023-08-24T07:06:48;21.10;99.90
52481;DHT22;38393;52.404;13.532;2023-08-24T07:09:14;21.40;99.90
52481;DHT22;38393;52.404;13.532;2023-08-24T07:11:40;21.50;99.90
52481;DHT22;38393;52.404;13.532;2023-08-24T07:14:06;21.70;99.90
52481;DHT22;38393;52.404;13.532;2023-08-24T07:16:31;21.80;98.70
52481;DHT22;38393;52.404;13.532;2023-08-24T07:18:57;21.90;98.80
52481;DHT22;38393;52.404;13.532;2023-08-24T07:21:22;22.00;96.90
52481;DHT22;38393;52.404;13.532;2023-08-24T07:23:48;22.10;97.40
52481;DHT22;38393;52.404;13.532;2023-08-24T07:26:13;22.20;96.40
52481;DHT22;38393;52.404;13.532;2023-08-24T07:28:39;22.40;96.10
52481;DHT22;38393;52.404;13.532;2023-08-24T07:31:09;22.50;94.00
52481;DHT22;38393;52.404;13.532;2023-08-24T07:33:36;22.50;93.40
52481;DHT22;38393;52.404;13.532;2023-08-24T07:36:04;22.60;92.50
52481;DHT22;38393;52.404;13.532;2023-08-24T07:38:30;22.60;91.20
52481;DHT22;38393;52.404;13.532;2023-08-24T07:40:56;22.70;92.70
52481;DHT22;38393;52.404;13.532;2023-08-24T07:43:22;22.80;92.30
52481;DHT22;38393;52.404;13.532;2023-08-24T07:45:47;23.00;90.10
52481;DHT22;38393;52.404;13.532;2023-08-24T07:48:13;23.20;89.60
52481;DHT22;38393;52.404;13.532;2023-08-24T07:50:38;23.20;87.30
52481;DHT22;38393;52.404;13.532;2023-08-24T07:53:04;23.20;90.20
52481;DHT22;38393;52.404;13.532;2023-08-24T07:55:30;23.30;89.00
52481;DHT22;38393;52.404;13.532;2023-08-24T07:57:55;23.40;90.20
52481;DHT22;38393;52.404;13.532;2023-08-24T08:00:21;23.40;87.50
52481;DHT22;38393;52.404;13.532;2023-08-24T08:02:49;23.50;86.80
52481;DHT22;38393;52.404;13.532;2023-08-24T08:05:15;23.70;88.50
52481;DHT22;38393;52.404;13.532;2023-08-24T08:07:41;23.90;84.00
52481;DHT22;38393;52.404;13.532;2023-08-24T08:10:06;24.00;84.00
52481;DHT22;38393;52.404;13.532;2023-08-24T08:12:33;24.30;82.20
52481;DHT22;38393;52.404;13.532;2023-08-24T08:14:59;24.30;79.90
52481;DHT22;38393;52.404;13.532;2023-08-24T08:17:24;24.40;82.00
52481;DHT22;38393;52.404;13.532;2023-08-24T08:19:54;24.70;80.70
52481;DHT22;38393;52.404;13.532;2023-08-24T08:22:20;24.50;79.10
52481;DHT22;38393;52.404;13.532;2023-08-24T08:24:46;24.50;78.80
52481;DHT22;38393;52.404;13.532;2023-08-24T08:27:11;24.50;78.90
52481;DHT22;38393;52.404;13.532;2023-08-24T08:29:37;24.30;76.30
52481;DHT22;38393;52.404;13.532;2023-08-24T08:32:02;24.30;75.90
52481;DHT22;38393;52.404;13.532;2023-08-24T08:34:28;24.40;76.20
52481;DHT22;38393;52.404;13.532;2023-08-24T08:36:53;24.20;76.70
52481;DHT22;38393;52.404;13.532;2023-08-24T08:39:19;24.30;75.80
52481;DHT22;38393;52.404;13.532;2023-08-24T08:41:45;24.30;77.00
52481;DHT22;38393;52.404;13.532;2023-08-24T08:44:13;24.50;77.90
52481;DHT22;38393;52.404;13.532;2023-08-24T08:46:40;24.50;77.50
52481;DHT22;38393;52.404;13.532;2023-08-24T08:49:07;24.20;73.00
52481;DHT22;38393;52.404;13.532;2023-08-24T08:51:35;24.20;76.40
52481;DHT22;38393;52.404;13.532;2023-08-24T08:54:02;24.10;76.60
52481;DHT22;38393;52.404;13.532;2023-08-24T08:56:29;24.30;78.40
52481;DHT22;38393;52.404;13.532;2023-08-24T08:58:55;24.30;76.30
52481;DHT22;38393;52.404;13.532;2023-08-24T09:01:22;24.20;74.80
52481;DHT22;38393;52.404;13.532;2023-08-24T09:03:49;24.50;74.80
52481;DHT22;38393;52.404;13.532;2023-08-24T09:06:14;24.40;76.70
52481;DHT22;38393;52.404;13.532;2023-08-24T09:08:40;24.20;74.80
52481;DHT22;38393;52.404;13.532;2023-08-24T09:11:05;24.30;76.10
52481;DHT22;38393;52.404;13.532;2023-08-24T09:13:33;24.40;76.60
52481;DHT22;38393;52.404;13.532;2023-08-24T09:16:06;24.40;78.60
52481;DHT22;38393;52.404;13.532;2023-08-24T09:18:38;24.30;78.80
52481;DHT22;38393;52.404;13.532;2023-08-24T09:21:30;24.20;78.50
52481;DHT22;38393;52.404;13.532;2023-08-24T09:23:56;24.20;76.60
52481;DHT22;38393;52.404;13.532;2023-08-24T09:26:29;24.30;77.40
52481;DHT22;38393;52.404;13.532;2023-08-24T09:28:55;24.70;77.90
52481;DHT22;38393;52.404;13.532;2023-08-24T09:31:20;24.90;72.40
52481;DHT22;38393;52.404;13.532;2023-08-24T09:33:47;24.90;72.50
52481;DHT22;38393;52.404;13.532;2023-08-24T09:36:14;24.60;73.10
52481;DHT22;38393;52.404;13.532;2023-08-24T09:38:46;24.30;73.00
52481;DHT22;38393;52.404;13.532;2023-08-24T09:41:13;24.30;74.60
52481;DHT22;38393;52.404;13.532;2023-08-24T09:43:40;24.30;74.80
52481;DHT22;38393;52.404;13.532;2023-08-24T09:46:05;24.30;76.60
52481;DHT22;38393;52.404;13.532;2023-08-24T09:48:32;24.00;74.30
52481;DHT22;38393;52.404;13.532;2023-08-24T09:51:01;23.70;74.30
52481;DHT22;38393;52.404;13.532;2023-08-24T09:53:28;23.60;75.10
52481;DHT22;38393;52.404;13.532;2023-08-24T09:56:01;23.90;76.80
52481;DHT22;38393;52.404;13.532;2023-08-24T09:58:28;24.30;76.60
52481;DHT22;38393;52.404;13.532;2023-08-24T10:00:55;24.40;75.10
52481;DHT22;38393;52.404;13.532;2023-08-24T10:03:27;24.60;69.60
52481;DHT22;38393;52.404;13.532;2023-08-24T10:05:55;24.60;74.90
52481;DHT22;38393;52.404;13.532;2023-08-24T10:08:29;24.90;72.20
52481;DHT22;38393;52.404;13.532;2023-08-24T10:10:56;24.80;71.50
52481;DHT22;38393;52.404;13.532;2023-08-24T10:13:32;25.00;69.40
52481;DHT22;38393;52.404;13.532;2023-08-24T10:15:59;25.10;67.70
52481;DHT22;38393;52.404;13.532;2023-08-24T10:18:25;25.00;67.30
52481;DHT22;38393;52.404;13.532;2023-08-24T10:20:52;25.00;69.80
52481;DHT22;38393;52.404;13.532;2023-08-24T10:23:19;24.90;69.60
52481;DHT22;38393;52.404;13.532;2023-08-24T10:25:46;25.10;68.80
52481;DHT22;38393;52.404;13.532;2023-08-24T10:28:12;25.10;68.00
52481;DHT22;38393;52.404;13.532;2023-08-24T10:30:39;24.90;68.40
52481;DHT22;38393;52.404;13.532;2023-08-24T10:33:05;25.00;69.50
52481;DHT22;38393;52.404;13.532;2023-08-24T10:35:32;25.20;70.60
52481;DHT22;38393;52.404;13.532;2023-08-24T10:38:01;25.20;68.00
52481;DHT22;38393;52.404;13.532;2023-08-24T10:40:35;25.40;68.20
52481;DHT22;38393;52.404;13.532;2023-08-24T10:43:04;25.30;66.80
52481;DHT22;38393;52.404;13.532;2023-08-24T10:46:00;25.50;68.90
52481;DHT22;38393;52.404;13.532;2023-08-24T10:51:17;25.70;66.90
52481;DHT22;38393;52.404;13.532;2023-08-24T10:53:46;25.50;65.30
52481;DHT22;38393;52.404;13.532;2023-08-24T10:56:13;25.70;69.80
52481;DHT22;38393;52.404;13.532;2023-08-24T10:58:38;25.70;67.30
52481;DHT22;38393;52.404;13.532;2023-08-24T11:01:04;25.80;67.10
52481;DHT22;38393;52.404;13.532;2023-08-24T11:03:33;25.90;65.00
52481;DHT22;38393;52.404;13.532;2023-08-24T11:06:00;26.00;67.30
52481;DHT22;38393;52.404;13.532;2023-08-24T11:08:48;25.90;66.40
52481;DHT22;38393;52.404;13.532;2023-08-24T11:11:23;25.90;64.50
52481;DHT22;38393;52.404;13.532;2023-08-24T11:14:13;26.00;63.60
52481;DHT22;38393;52.404;13.532;2023-08-24T11:16:42;26.00;66.20
52481;DHT22;38393;52.404;13.532;2023-08-24T11:19:08;26.30;67.70
52481;DHT22;38393;52.404;13.532;2023-08-24T11:21:35;26.20;65.90
52481;DHT22;38393;52.404;13.532;2023-08-24T11:24:02;26.40;66.90
52481;DHT22;38393;52.404;13.532;2023-08-24T11:26:29;26.40;66.40
52481;DHT22;38393;52.404;13.532;2023-08-24T11:28:55;26.40;65.70
52481;DHT22;38393;52.404;13.532;2023-08-24T11:31:23;26.30;68.00
52481;DHT22;38393;52.404;13.532;2023-08-24T11:33:54;26.40;68.10
52481;DHT22;38393;52.404;13.532;2023-08-24T11:36:20;26.40;63.70
52481;DHT22;38393;52.404;13.532;2023-08-24T11:38:46;26.50;65.90
52481;DHT22;38393;52.404;13.532;2023-08-24T11:41:14;26.50;67.40
52481;DHT22;38393;52.404;13.532;2023-08-24T11:43:39;26.50;66.70
52481;DHT22;38393;52.404;13.532;2023-08-24T11:46:05;26.50;66.40
52481;DHT22;38393;52.404;13.532;2023-08-24T11:48:31;26.60;64.10
52481;DHT22;38393;52.404;13.532;2023-08-24T11:50:59;26.60;63.70
52481;DHT22;38393;52.404;13.532;2023-08-24T11:53:25;26.60;61.20
52481;DHT22;38393;52.404;13.532;2023-08-24T11:55:55;26.40;63.20
52481;DHT22;38393;52.404;13.532;2023-08-24T11:58:20;26.50;65.40
52481;DHT22;38393;52.404;13.532;2023-08-24T12:00:46;26.50;64.40
52481;DHT22;38393;52.404;13.532;2023-08-24T12:03:12;26.60;65.40
52481;DHT22;38393;52.404;13.532;2023-08-24T12:05:38;26.50;64.90
52481;DHT22;38393;52.404;13.532;2023-08-24T12:08:03;26.60;67.50
52481;DHT22;38393;52.404;13.532;2023-08-24T12:10:29;26.70;66.00
52481;DHT22;38393;52.404;13.532;2023-08-24T12:13:05;26.70;63.50
52481;DHT22;38393;52.404;13.532;2023-08-24T12:15:34;26.90;63.60
52481;DHT22;38393;52.404;13.532;2023-08-24T12:18:10;27.10;64.10
52481;DHT22;38393;52.404;13.532;2023-08-24T12:20:36;27.10;62.80
52481;DHT22;38393;52.404;13.532;2023-08-24T12:23:02;27.00;63.50
52481;DHT22;38393;52.404;13.532;2023-08-24T12:25:28;26.90;61.80
52481;DHT22;38393;52.404;13.532;2023-08-24T12:28:11;27.00;63.90
52481;DHT22;38393;52.404;13.532;2023-08-24T12:31:03;27.00;63.50
52481;DHT22;38393;52.404;13.532;2023-08-24T12:33:30;27.00;61.30
52481;DHT22;38393;52.404;13.532;2023-08-24T12:35:57;27.00;60.70
52481;DHT22;38393;52.404;13.532;2023-08-24T12:38:24;26.90;62.30
52481;DHT22;38393;52.404;13.532;2023-08-24T12:40:50;27.00;60.90
52481;DHT22;38393;52.404;13.532;2023-08-24T12:43:16;26.90;58.90
52481;DHT22;38393;52.404;13.532;2023-08-24T12:45:42;26.80;59.80
52481;DHT22;38393;52.404;13.532;2023-08-24T12:48:07;26.80;61.00
52481;DHT22;38393;52.404;13.532;2023-08-24T12:50:34;26.80;60.90
52481;DHT22;38393;52.404;13.532;2023-08-24T12:52:59;27.20;61.60
52481;DHT22;38393;52.404;13.532;2023-08-24T12:55:28;27.40;61.90
52481;DHT22;38393;52.404;13.532;2023-08-24T12:57:54;27.40;59.90
52481;DHT22;38393;52.404;13.532;2023-08-24T13:00:20;27.30;57.70
52481;DHT22;38393;52.404;13.532;2023-08-24T13:02:45;27.40;59.40
52481;DHT22;38393;52.404;13.532;2023-08-24T13:05:11;27.60;60.40
52481;DHT22;38393;52.404;13.532;2023-08-24T13:07:37;27.60;58.30
52481;DHT22;38393;52.404;13.532;2023-08-24T13:10:03;27.60;58.40
52481;DHT22;38393;52.404;13.532;2023-08-24T13:12:30;27.40;58.80
52481;DHT22;38393;52.404;13.532;2023-08-24T13:14:55;27.40;58.70
52481;DHT22;38393;52.404;13.532;2023-08-24T13:17:21;27.20;58.20
52481;DHT22;38393;52.404;13.532;2023-08-24T13:19:46;27.20;58.60
52481;DHT22;38393;52.404;13.532;2023-08-24T13:22:14;27.40;59.20
52481;DHT22;38393;52.404;13.532;2023-08-24T13:24:39;27.70;59.60
52481;DHT22;38393;52.404;13.532;2023-08-24T13:27:05;27.70;61.50
52481;DHT22;38393;52.404;13.532;2023-08-24T13:29:36;27.50;59.00
52481;DHT22;38393;52.404;13.532;2023-08-24T13:32:01;27.60;58.30
52481;DHT22;38393;52.404;13.532;2023-08-24T13:34:27;27.50;60.60
52481;DHT22;38393;52.404;13.532;2023-08-24T13:36:52;27.40;57.50
52481;DHT22;38393;52.404;13.532;2023-08-24T13:39:18;27.40;57.00
52481;DHT22;38393;52.404;13.532;2023-08-24T13:41:44;27.30;56.60
52481;DHT22;38393;52.404;13.532;2023-08-24T13:44:09;27.40;59.00
52481;DHT22;38393;52.404;13.532;2023-08-24T13:46:34;27.70;59.10
52481;DHT22;38393;52.404;13.532;2023-08-24T13:49:00;27.80;59.30
52481;DHT22;38393;52.404;13.532;2023-08-24T13:51:25;27.70;58.30
52481;DHT22;38393;52.404;13.532;2023-08-24T13:53:51;27.70;58.00
52481;DHT22;38393;52.404;13.532;2023-08-24T13:56:16;27.70;59.00
52481;DHT22;38393;52.404;13.532;2023-08-24T13:58:42;27.60;57.90
52481;DHT22;38393;52.404;13.532;2023-08-24T14:01:07;27.60;60.80
52481;DHT22;38393;52.404;13.532;2023-08-24T14:03:35;27.30;58.40
52481;DHT22;38393;52.404;13.532;2023-08-24T14:06:02;27.40;61.50
52481;DHT22;38393;52.404;13.532;2023-08-24T14:08:28;27.70;58.00
52481;DHT22;38393;52.404;13.532;2023-08-24T14:10:53;27.70;62.00
52481;DHT22;38393;52.404;13.532;2023-08-24T14:13:19;27.50;55.20
52481;DHT22;38393;52.404;13.532;2023-08-24T14:15:47;27.60;58.00
52481;DHT22;38393;52.404;13.532;2023-08-24T14:18:12;27.70;59.70
52481;DHT22;38393;52.404;13.532;2023-08-24T14:20:38;27.80;58.80
52481;DHT22;38393;52.404;13.532;2023-08-24T14:23:04;27.80;56.30
52481;DHT22;38393;52.404;13.532;2023-08-24T14:25:29;27.60;57.30
52481;DHT22;38393;52.404;13.532;2023-08-24T14:27:55;27.70;59.00
52481;DHT22;38393;52.404;13.532;2023-08-24T14:30:20;27.90;55.60
52481;DHT22;38393;52.404;13.532;2023-08-24T14:32:46;28.10;57.80
52481;DHT22;38393;52.404;13.532;2023-08-24T14:35:11;28.20;55.80
52481;DHT22;38393;52.404;13.532;2023-08-24T14:37:37;28.10;57.00
52481;DHT22;38393;52.404;13.532;2023-08-24T14:40:05;28.20;56.10
52481;DHT22;38393;52.404;13.532;2023-08-24T14:42:31;28.10;55.90
52481;DHT22;38393;52.404;13.532;2023-08-24T14:44:56;28.00;56.70
52481;DHT22;38393;52.404;13.532;2023-08-24T14:47:22;28.00;55.60
52481;DHT22;38393;52.404;13.532;2023-08-24T14:49:47;28.00;56.90
52481;DHT22;38393;52.404;13.532;2023-08-24T14:52:13;27.90;54.50
52481;DHT22;38393;52.404;13.532;2023-08-24T14:54:39;27.90;55.10
52481;DHT22;38393;52.404;13.532;2023-08-24T14:57:04;28.00;57.20
52481;DHT22;38393;52.404;13.532;2023-08-24T14:59:31;28.10;57.70
52481;DHT22;38393;52.404;13.532;2023-08-24T15:01:57;28.20;55.70
52481;DHT22;38393;52.404;13.532;2023-08-24T15:04:26;28.20;58.00
52481;DHT22;38393;52.404;13.532;2023-08-24T15:06:52;28.30;57.00
52481;DHT22;38393;52.404;13.532;2023-08-24T15:09:17;28.20;56.10
52481;DHT22;38393;52.404;13.532;2023-08-24T15:11:43;28.40;57.80
52481;DHT22;38393;52.404;13.532;2023-08-24T15:14:08;28.40;56.40
52481;DHT22;38393;52.404;13.532;2023-08-24T15:16:33;28.30;56.40
52481;DHT22;38393;52.404;13.532;2023-08-24T15:18:59;28.40;56.10